sensor_id;sensor_type;location;lat;lon;timestamp;temperature;humidity
12166;DHT22;6146;48.128;11.476;2023-02-01T00:01:39;4.20;99.90
12166;DHT22;6146;48.128;11.476;2023-02-01T00:04:04;4.20;99.90
12166;DHT22;6146;48.128;11.476;2023-02-01T00:06:30;4.20;99.90
12166;DHT22;6146;48.128;11.476;2023-02-01T00:08:56;4.30;99.90
12166;DHT22;6146;48.128;11.476;2023-02-01T00:11:23;4.30;99.90
12166;DHT22;6146;48.128;11.476;2023-02-01T00:13:49;4.30;99.90
12166;DHT22;6146;48.128;11.476;2023-02-01T00:16:16;4.30;99.90
12166;DHT22;6146;48.128;11.476;2023-02-01T00:18:43;4.30;99.90
12166;DHT22;6146;48.128;11.476;2023-02-01T00:21:11;4.40;99.90
12166;DHT22;6146;48.128;11.476;2023-02-01T00:23:37;4.40;99.90
12166;DHT22;6146;48.128;11.476;2023-02-01T00:26:05;4.40;99.90
12166;DHT22;6146;48.128;11.476;2023-02-01T00:28:31;4.40;99.90
12166;DHT22;6146;48.128;11.476;2023-02-01T00:31:01;4.40;99.90
12166;DHT22;6146;48.128;11.476;2023-02-01T00:33:28;4.40;99.90
12166;DHT22;6146;48.128;11.476;2023-02-01T00:36:03;4.40;99.90
12166;DHT22;6146;48.128;11.476;2023-02-01T00:38:30;4.30;99.90
12166;DHT22;6146;48.128;11.476;2023-02-01T00:41:02;4.30;99.90
12166;DHT22;6146;48.128;11.476;2023-02-01T00:43:30;4.30;99.90
12166;DHT22;6146;48.128;11.476;2023-02-01T00:45:56;4.20;99.90
12166;DHT22;6146;48.128;11.476;2023-02-01T00:48:22;4.10;99.90
12166;DHT22;6146;48.128;11.476;2023-02-01T00:50:47;4.10;99.90
12166;DHT22;6146;48.128;11.476;2023-02-01T00:53:13;4.00;99.90
12166;DHT22;6146;48.128;11.476;2023-02-01T00:55:38;4.00;99.90
12166;DHT22;6146;48.128;11.476;2023-02-01T00:58:04;4.00;99.90
12166;DHT22;6146;48.128;11.476;2023-02-01T01:00:32;3.90;99.90
12166;DHT22;6146;48.128;11.476;2023-02-01T01:02:57;3.80;99.90
12166;DHT22;6146;48.128;11.476;2023-02-01T01:05:23;3.70;99.90
12166;DHT22;6146;48.128;11.476;2023-02-01T01:07:49;3.70;99.90
12166;DHT22;6146;48.128;11.476;2023-02-01T01:10:15;3.70;99.90
12166;DHT22;6146;48.128;11.476;2023-02-01T01:12:41;3.70;99.90
12166;DHT22;6146;48.128;11.476;2023-02-01T01:15:07;3.70;99.90
12166;DHT22;6146;48.128;11.476;2023-02-01T01:17:33;3.70;99.90
12166;DHT22;6146;48.128;11.476;2023-02-01T01:19:58;3.60;99.90
12166;DHT22;6146;48.128;11.476;2023-02-01T01:22:24;3.60;99.90
12166;DHT22;6146;48.128;11.476;2023-02-01T01:24:49;3.60;99.90
12166;DHT22;6146;48.128;11.476;2023-02-01T01:27:15;3.60;99.90
12166;DHT22;6146;48.128;11.476;2023-02-01T01:29:40;3.60;99.90
12166;DHT22;6146;48.128;11.476;2023-02-01T01:32:06;3.60;99.90
12166;DHT22;6146;48.128;11.476;2023-02-01T01:34:32;3.60;99.90
12166;DHT22;6146;48.128;11.476;2023-02-01T01:36:57;3.60;99.90
12166;DHT22;6146;48.128;11.476;2023-02-01T01:39:23;3.70;99.90
12166;DHT22;6146;48.128;11.476;2023-02-01T01:41:48;3.60;99.90
12166;DHT22;6146;48.128;11.476;2023-02-01T01:47:17;3.50;99.90
12166;DHT22;6146;48.128;11.476;2023-02-01T01:49:43;3.50;99.90
12166;DHT22;6146;48.128;11.476;2023-02-01T01:52:09;3.50;99.90
12166;DHT22;6146;48.128;11.476;2023-02-01T01:54:40;3.50;99.90
12166;DHT22;6146;48.128;11.476;2023-02-01T01:57:11;3.40;99.90
12166;DHT22;6146;48.128;11.476;2023-02-01T01:59:41;3.40;99.90
12166;DHT22;6146;48.128;11.476;2023-02-01T02:02:08;3.30;99.90
12166;DHT22;6146;48.128;11.476;2023-02-01T02:04:35;3.30;99.90
12166;DHT22;6146;48.128;11.476;2023-02-01T02:07:13;3.20;99.90
12166;DHT22;6146;48.128;11.476;2023-02-01T02:09:39;3.20;99.90
12166;DHT22;6146;48.128;11.476;2023-02-01T02:12:05;3.20;99.90
12166;DHT22;6146;48.128;11.476;2023-02-01T02:14:31;3.20;99.90
12166;DHT22;6146;48.128;11.476;2023-02-01T02:19:48;3.20;99.90
12166;DHT22;6146;48.128;11.476;2023-02-01T02:39:33;3.30;99.90
12166;DHT22;6146;48.128;11.476;2023-02-01T02:42:20;3.30;99.90
12166;DHT22;6146;48.128;11.476;2023-02-01T02:45:19;3.30;99.90
12166;DHT22;6146;48.128;11.476;2023-02-01T02:48:30;3.30;99.90
12166;DHT22;6146;48.128;11.476;2023-02-01T02:51:04;3.30;99.90
12166;DHT22;6146;48.128;11.476;2023-02-01T02:54:20;3.30;99.90
12166;DHT22;6146;48.128;11.476;2023-02-01T02:57:08;3.40;99.90
12166;DHT22;6146;48.128;11.476;2023-02-01T02:59:55;3.40;99.90
12166;DHT22;6146;48.128;11.476;2023-02-01T03:02:41;3.40;99.90
12166;DHT22;6146;48.128;11.476;2023-02-01T03:05:34;3.50;99.90
12166;DHT22;6146;48.128;11.476;2023-02-01T03:08:08;3.50;99.90
12166;DHT22;6146;48.128;11.476;2023-02-01T03:10:46;3.40;99.90
12166;DHT22;6146;48.128;11.476;2023-02-01T03:13:25;3.50;99.90
12166;DHT22;6146;48.128;11.476;2023-02-01T03:16:07;3.50;99.90
12166;DHT22;6146;48.128;11.476;2023-02-01T03:21:10;3.60;99.90
12166;DHT22;6146;48.128;11.476;2023-02-01T03:23:37;3.70;99.90
12166;DHT22;6146;48.128;11.476;2023-02-01T03:26:10;3.70;99.90
12166;DHT22;6146;48.128;11.476;2023-02-01T03:28:39;3.70;99.90
12166;DHT22;6146;48.128;11.476;2023-02-01T03:31:08;3.60;99.90
12166;DHT22;6146;48.128;11.476;2023-02-01T03:33:33;3.70;99.90
12166;DHT22;6146;48.128;11.476;2023-02-01T03:39:00;3.70;99.90
12166;DHT22;6146;48.128;11.476;2023-02-01T03:41:47;3.70;99.90
12166;DHT22;6146;48.128;11.476;2023-02-01T03:44:26;3.80;99.90
12166;DHT22;6146;48.128;11.476;2023-02-01T03:47:02;3.70;99.90
12166;DHT22;6146;48.128;11.476;2023-02-01T03:51:58;3.70;99.90
12166;DHT22;6146;48.128;11.476;2023-02-01T03:54:25;3.80;99.90
12166;DHT22;6146;48.128;11.476;2023-02-01T03:56:52;3.80;99.90
12166;DHT22;6146;48.128;11.476;2023-02-01T03:59:19;3.80;99.90
12166;DHT22;6146;48.128;11.476;2023-02-01T04:01:45;3.70;99.90
12166;DHT22;6146;48.128;11.476;2023-02-01T04:04:10;3.80;99.90
12166;DHT22;6146;48.128;11.476;2023-02-01T04:06:51;3.80;99.90
12166;DHT22;6146;48.128;11.476;2023-02-01T04:09:17;3.80;99.90
12166;DHT22;6146;48.128;11.476;2023-02-01T04:11:43;3.80;99.90
12166;DHT22;6146;48.128;11.476;2023-02-01T04:14:08;3.80;99.90
12166;DHT22;6146;48.128;11.476;2023-02-01T04:16:34;3.80;99.90
12166;DHT22;6146;48.128;11.476;2023-02-01T04:19:00;3.80;99.90
12166;DHT22;6146;48.128;11.476;2023-02-01T04:21:27;3.80;99.90
12166;DHT22;6146;48.128;11.476;2023-02-01T04:23:53;3.80;99.90
12166;DHT22;6146;48.128;11.476;2023-02-01T04:26:19;3.80;99.90
12166;DHT22;6146;48.128;11.476;2023-02-01T04:28:45;3.80;99.90
12166;DHT22;6146;48.128;11.476;2023-02-01T04:31:15;3.80;99.90
12166;DHT22;6146;48.128;11.476;2023-02-01T04:33:41;3.80;99.90
12166;DHT22;6146;48.128;11.476;2023-02-01T04:36:06;3.80;99.90
12166;DHT22;6146;48.128;11.476;2023-02-01T04:38:32;3.80;99.90
12166;DHT22;6146;48.128;11.476;2023-02-01T04:40:58;3.80;99.90
12166;DHT22;6146;48.128;11.476;2023-02-01T04:43:24;3.80;99.90
12166;DHT22;6146;48.128;11.476;2023-02-01T04:45:51;3.80;99.90
12166;DHT22;6146;48.128;11.476;2023-02-01T04:48:18;3.70;99.90
12166;DHT22;6146;48.128;11.476;2023-02-01T04:50:45;3.70;99.90
12166;DHT22;6146;48.128;11.476;2023-02-01T04:53:15;3.70;99.90
12166;DHT22;6146;48.128;11.476;2023-02-01T04:55:42;3.70;99.90
12166;DHT22;6146;48.128;11.476;2023-02-01T04:58:08;3.70;99.90
12166;DHT22;6146;48.128;11.476;2023-02-01T05:00:34;3.70;99.90
12166;DHT22;6146;48.128;11.476;2023-02-01T05:03:00;3.70;99.90
12166;DHT22;6146;48.128;11.476;2023-02-01T05:05:27;3.70;99.90
12166;DHT22;6146;48.128;11.476;2023-02-01T05:07:52;3.70;99.90
12166;DHT22;6146;48.128;11.476;2023-02-01T05:10:18;3.80;99.90
12166;DHT22;6146;48.128;11.476;2023-02-01T05:12:44;3.90;99.90
12166;DHT22;6146;48.128;11.476;2023-02-01T05:15:29;3.90;99.90
12166;DHT22;6146;48.128;11.476;2023-02-01T05:17:54;3.80;99.90
12166;DHT22;6146;48.128;11.476;2023-02-01T05:20:20;3.80;99.90
12166;DHT22;6146;48.128;11.476;2023-02-01T05:22:45;3.80;99.90
12166;DHT22;6146;48.128;11.476;2023-02-01T05:25:11;3.80;99.90
12166;DHT22;6146;48.128;11.476;2023-02-01T05:27:36;3.80;99.90
12166;DHT22;6146;48.128;11.476;2023-02-01T05:30:04;3.80;99.90
12166;DHT22;6146;48.128;11.476;2023-02-01T05:32:30;3.90;99.90
12166;DHT22;6146;48.128;11.476;2023-02-01T05:34:55;3.80;99.90
12166;DHT22;6146;48.128;11.476;2023-02-01T05:37:21;3.80;99.90
12166;DHT22;6146;48.128;11.476;2023-02-01T05:39:46;3.80;99.90
12166;DHT22;6146;48.128;11.476;2023-02-01T05:42:12;3.80;99.90
12166;DHT22;6146;48.128;11.476;2023-02-01T05:44:37;3.80;99.90
12166;DHT22;6146;48.128;11.476;2023-02-01T05:47:03;3.80;99.90
12166;DHT22;6146;48.128;11.476;2023-02-01T05:49:29;3.80;99.90
12166;DHT22;6146;48.128;11.476;2023-02-01T05:51:54;3.80;99.90
12166;DHT22;6146;48.128;11.476;2023-02-01T05:54:20;3.80;99.90
12166;DHT22;6146;48.128;11.476;2023-02-01T05:56:45;3.80;99.90
12166;DHT22;6146;48.128;11.476;2023-02-01T05:59:11;3.80;99.90
12166;DHT22;6146;48.128;11.476;2023-02-01T06:01:37;3.80;99.90
12166;DHT22;6146;48.128;11.476;2023-02-01T06:04:02;3.80;99.90
12166;DHT22;6146;48.128;11.476;2023-02-01T06:06:28;3.80;99.90
12166;DHT22;6146;48.128;11.476;2023-02-01T06:08:53;3.80;99.90
12166;DHT22;6146;48.128;11.476;2023-02-01T06:11:19;3.80;99.90
12166;DHT22;6146;48.128;11.476;2023-02-01T06:13:44;3.80;99.90
12166;DHT22;6146;48.128;11.476;2023-02-01T06:16:10;3.80;99.90
12166;DHT22;6146;48.128;11.476;2023-02-01T06:18:36;3.80;99.90
12166;DHT22;6146;48.128;11.476;2023-02-01T06:21:01;3.80;99.90
12166;DHT22;6146;48.128;11.476;2023-02-01T06:23:28;3.80;99.90
12166;DHT22;6146;48.128;11.476;2023-02-01T06:26:02;3.80;99.90
12166;DHT22;6146;48.128;11.476;2023-02-01T06:28:29;3.90;99.90
12166;DHT22;6146;48.128;11.476;2023-02-01T06:30:55;3.80;99.90
12166;DHT22;6146;48.128;11.476;2023-02-01T06:33:21;3.90;99.90
12166;DHT22;6146;48.128;11.476;2023-02-01T06:35:46;3.90;99.90
12166;DHT22;6146;48.128;11.476;2023-02-01T06:38:13;3.90;99.90
12166;DHT22;6146;48.128;11.476;2023-02-01T06:40:39;4.00;99.90
12166;DHT22;6146;48.128;11.476;2023-02-01T06:43:06;3.90;99.90
12166;DHT22;6146;48.128;11.476;2023-02-01T06:45:32;3.90;99.90
12166;DHT22;6146;48.128;11.476;2023-02-01T06:47:58;3.90;99.90
12166;DHT22;6146;48.128;11.476;2023-02-01T06:50:25;3.90;99.90
12166;DHT22;6146;48.128;11.476;2023-02-01T06:52:50;3.90;99.90
12166;DHT22;6146;48.128;11.476;2023-02-01T06:55:16;3.90;99.90
12166;DHT22;6146;48.128;11.476;2023-02-01T06:57:41;4.00;99.90
12166;DHT22;6146;48.128;11.476;2023-02-01T07:00:07;4.00;99.90
12166;DHT22;6146;48.128;11.476;2023-02-01T07:02:33;3.90;99.90
12166;DHT22;6146;48.128;11.476;2023-02-01T07:04:59;3.90;99.90
12166;DHT22;6146;48.128;11.476;2023-02-01T07:07:24;4.00;99.90
12166;DHT22;6146;48.128;11.476;2023-02-01T07:09:50;4.00;99.90
12166;DHT22;6146;48.128;11.476;2023-02-01T07:12:15;4.00;99.90
12166;DHT22;6146;48.128;11.476;2023-02-01T07:14:41;4.00;99.90
12166;DHT22;6146;48.128;11.476;2023-02-01T07:17:07;4.00;99.90
12166;DHT22;6146;48.128;11.476;2023-02-01T07:19:32;4.00;99.90
12166;DHT22;6146;48.128;11.476;2023-02-01T07:21:58;4.00;99.90
12166;DHT22;6146;48.128;11.476;2023-02-01T07:24:23;4.00;99.90
12166;DHT22;6146;48.128;11.476;2023-02-01T07:26:49;4.00;99.90
12166;DHT22;6146;48.128;11.476;2023-02-01T07:29:17;4.10;99.90
12166;DHT22;6146;48.128;11.476;2023-02-01T07:31:42;4.10;99.90
12166;DHT22;6146;48.128;11.476;2023-02-01T07:34:08;4.10;99.90
12166;DHT22;6146;48.128;11.476;2023-02-01T07:36:33;4.10;99.90
12166;DHT22;6146;48.128;11.476;2023-02-01T07:39:02;4.20;99.90
12166;DHT22;6146;48.128;11.476;2023-02-01T07:41:27;4.20;99.90
12166;DHT22;6146;48.128;11.476;2023-02-01T07:43:53;4.20;99.90
12166;DHT22;6146;48.128;11.476;2023-02-01T07:46:19;4.20;99.90
12166;DHT22;6146;48.128;11.476;2023-02-01T07:48:45;4.30;99.90
12166;DHT22;6146;48.128;11.476;2023-02-01T07:51:13;4.30;99.90
12166;DHT22;6146;48.128;11.476;2023-02-01T07:53:39;4.30;99.90
12166;DHT22;6146;48.128;11.476;2023-02-01T07:56:12;4.30;99.90
12166;DHT22;6146;48.128;11.476;2023-02-01T07:58:38;4.30;99.90
12166;DHT22;6146;48.128;11.476;2023-02-01T08:01:04;4.30;99.90
12166;DHT22;6146;48.128;11.476;2023-02-01T08:04:01;4.30;99.90
12166;DHT22;6146;48.128;11.476;2023-02-01T08:06:29;4.30;99.90
12166;DHT22;6146;48.128;11.476;2023-02-01T08:08:54;4.40;99.90
12166;DHT22;6146;48.128;11.476;2023-02-01T08:11:21;4.50;99.90
12166;DHT22;6146;48.128;11.476;2023-02-01T08:13:47;4.50;99.90
12166;DHT22;6146;48.128;11.476;2023-02-01T08:16:15;4.60;99.90
12166;DHT22;6146;48.128;11.476;2023-02-01T08:18:41;4.50;99.90
12166;DHT22;6146;48.128;11.476;2023-02-01T08:21:12;4.50;99.90
12166;DHT22;6146;48.128;11.476;2023-02-01T08:23:40;4.60;99.90
12166;DHT22;6146;48.128;11.476;2023-02-01T08:26:14;4.60;99.90
12166;DHT22;6146;48.128;11.476;2023-02-01T08:28:42;4.60;99.90
12166;DHT22;6146;48.128;11.476;2023-02-01T08:31:10;4.70;99.90
12166;DHT22;6146;48.128;11.476;2023-02-01T08:33:36;4.80;99.90
12166;DHT22;6146;48.128;11.476;2023-02-01T08:36:04;4.80;99.90
12166;DHT22;6146;48.128;11.476;2023-02-01T08:38:30;4.80;99.90
12166;DHT22;6146;48.128;11.476;2023-02-01T08:40:56;4.80;99.90
12166;DHT22;6146;48.128;11.476;2023-02-01T08:43:22;4.90;99.90
12166;DHT22;6146;48.128;11.476;2023-02-01T08:45:48;4.90;99.90
12166;DHT22;6146;48.128;11.476;2023-02-01T08:48:14;5.00;99.90
12166;DHT22;6146;48.128;11.476;2023-02-01T08:50:40;5.20;99.90
12166;DHT22;6146;48.128;11.476;2023-02-01T08:53:05;5.20;99.90
12166;DHT22;6146;48.128;11.476;2023-02-01T08:55:31;5.20;99.90
12166;DHT22;6146;48.128;11.476;2023-02-01T08:57:56;5.20;99.90
12166;DHT22;6146;48.128;11.476;2023-02-01T09:00:22;5.30;99.90
12166;DHT22;6146;48.128;11.476;2023-02-01T09:02:48;5.30;99.90
12166;DHT22;6146;48.128;11.476;2023-02-01T09:05:13;5.30;99.90
12166;DHT22;6146;48.128;11.476;2023-02-01T09:07:42;5.30;99.90
12166;DHT22;6146;48.128;11.476;2023-02-01T09:10:08;5.30;99.90
12166;DHT22;6146;48.128;11.476;2023-02-01T09:12:35;5.40;99.90
12166;DHT22;6146;48.128;11.476;2023-02-01T09:15:01;5.40;99.90
12166;DHT22;6146;48.128;11.476;2023-02-01T09:17:27;5.40;99.90
12166;DHT22;6146;48.128;11.476;2023-02-01T09:19:53;5.50;99.90
12166;DHT22;6146;48.128;11.476;2023-02-01T09:22:18;5.50;99.90
12166;DHT22;6146;48.128;11.476;2023-02-01T09:24:44;5.60;99.90
12166;DHT22;6146;48.128;11.476;2023-02-01T09:27:10;5.60;99.90
12166;DHT22;6146;48.128;11.476;2023-02-01T09:29:35;5.70;99.90
12166;DHT22;6146;48.128;11.476;2023-02-01T09:32:01;5.60;99.90
12166;DHT22;6146;48.128;11.476;2023-02-01T09:34:26;5.60;99.90
12166;DHT22;6146;48.128;11.476;2023-02-01T09:36:52;5.60;99.90
12166;DHT22;6146;48.128;11.476;2023-02-01T09:39:18;5.70;99.90
12166;DHT22;6146;48.128;11.476;2023-02-01T09:47:16;6.10;99.90
12166;DHT22;6146;48.128;11.476;2023-02-01T09:49:50;6.10;99.90
12166;DHT22;6146;48.128;11.476;2023-02-01T09:52:20;6.10;99.90
12166;DHT22;6146;48.128;11.476;2023-02-01T09:55:42;6.20;99.90
12166;DHT22;6146;48.128;11.476;2023-02-01T09:58:04;6.30;99.90
12166;DHT22;6146;48.128;11.476;2023-02-01T10:00:37;6.20;99.90
12166;DHT22;6146;48.128;11.476;2023-02-01T10:03:04;6.20;99.90
12166;DHT22;6146;48.128;11.476;2023-02-01T10:16:30;5.90;99.90
12166;DHT22;6146;48.128;11.476;2023-02-01T10:19:10;5.90;99.90
12166;DHT22;6146;48.128;11.476;2023-02-01T10:21:59;5.90;99.90
12166;DHT22;6146;48.128;11.476;2023-02-01T10:29:43;6.00;99.90
12166;DHT22;6146;48.128;11.476;2023-02-01T10:32:14;6.00;99.90
12166;DHT22;6146;48.128;11.476;2023-02-01T10:34:41;5.90;99.90
12166;DHT22;6146;48.128;11.476;2023-02-01T10:37:37;5.80;99.90
12166;DHT22;6146;48.128;11.476;2023-02-01T10:40:19;5.80;99.90
12166;DHT22;6146;48.128;11.476;2023-02-01T10:42:48;5.70;99.90
12166;DHT22;6146;48.128;11.476;2023-02-01T10:45:20;5.80;99.90
12166;DHT22;6146;48.128;11.476;2023-02-01T10:47:49;5.80;99.90
12166;DHT22;6146;48.128;11.476;2023-02-01T10:52:52;5.90;99.90
12166;DHT22;6146;48.128;11.476;2023-02-01T10:58:01;6.00;99.90
12166;DHT22;6146;48.128;11.476;2023-02-01T11:00:28;5.90;99.90
12166;DHT22;6146;48.128;11.476;2023-02-01T11:02:54;5.90;99.90
12166;DHT22;6146;48.128;11.476;2023-02-01T11:05:20;6.80;99.90
12166;DHT22;6146;48.128;11.476;2023-02-01T11:07:53;5.70;99.90
12166;DHT22;6146;48.128;11.476;2023-02-01T11:10:39;5.60;99.90
12166;DHT22;6146;48.128;11.476;2023-02-01T11:13:17;5.60;99.90
12166;DHT22;6146;48.128;11.476;2023-02-01T11:15:45;5.70;99.90
12166;DHT22;6146;48.128;11.476;2023-02-01T11:18:19;5.70;99.90
12166;DHT22;6146;48.128;11.476;2023-02-01T11:20:46;5.80;99.90
12166;DHT22;6146;48.128;11.476;2023-02-01T11:23:20;5.90;99.90
12166;DHT22;6146;48.128;11.476;2023-02-01T11:26:02;5.90;99.90
12166;DHT22;6146;48.128;11.476;2023-02-01T11:28:34;6.00;99.90
12166;DHT22;6146;48.128;11.476;2023-02-01T11:31:03;6.00;99.90
12166;DHT22;6146;48.128;11.476;2023-02-01T11:33:32;5.90;99.90
12166;DHT22;6146;48.128;11.476;2023-02-01T11:36:06;5.80;99.90
12166;DHT22;6146;48.128;11.476;2023-02-01T11:38:33;5.70;99.90
12166;DHT22;6146;48.128;11.476;2023-02-01T11:41:22;5.60;99.90
12166;DHT22;6146;48.128;11.476;2023-02-01T11:43:56;5.50;99.90
12166;DHT22;6146;48.128;11.476;2023-02-01T11:46:27;5.60;99.90
12166;DHT22;6146;48.128;11.476;2023-02-01T11:48:55;5.60;99.90
12166;DHT22;6146;48.128;11.476;2023-02-01T11:54:11;5.70;99.90
12166;DHT22;6146;48.128;11.476;2023-02-01T12:02:54;5.50;99.90
12166;DHT22;6146;48.128;11.476;2023-02-01T12:05:35;5.40;99.90
12166;DHT22;6146;48.128;11.476;2023-02-01T12:08:24;5.50;99.90
12166;DHT22;6146;48.128;11.476;2023-02-01T12:24:49;5.40;99.90
12166;DHT22;6146;48.128;11.476;2023-02-01T12:27:40;5.30;99.90
12166;DHT22;6146;48.128;11.476;2023-02-01T12:41:32;5.10;99.90
12166;DHT22;6146;48.128;11.476;2023-02-01T12:44:11;5.00;99.90
12166;DHT22;6146;48.128;11.476;2023-02-01T12:46:43;5.00;99.90
12166;DHT22;6146;48.128;11.476;2023-02-01T12:49:21;5.00;99.90
12166;DHT22;6146;48.128;11.476;2023-02-01T12:51:54;5.00;99.90
12166;DHT22;6146;48.128;11.476;2023-02-01T12:54:47;5.00;99.90
12166;DHT22;6146;48.128;11.476;2023-02-01T12:57:23;5.00;99.90
12166;DHT22;6146;48.128;11.476;2023-02-01T12:59:59;5.10;99.90
12166;DHT22;6146;48.128;11.476;2023-02-01T13:02:50;5.10;99.90
12166;DHT22;6146;48.128;11.476;2023-02-01T13:05:20;5.10;99.90
12166;DHT22;6146;48.128;11.476;2023-02-01T13:08:08;5.20;99.90
12166;DHT22;6146;48.128;11.476;2023-02-01T13:10:47;5.20;99.90
12166;DHT22;6146;48.128;11.476;2023-02-01T13:13:19;5.30;99.90
12166;DHT22;6146;48.128;11.476;2023-02-01T13:15:58;5.30;99.90
12166;DHT22;6146;48.128;11.476;2023-02-01T13:18:27;5.30;99.90
12166;DHT22;6146;48.128;11.476;2023-02-01T13:20:58;5.20;99.90
12166;DHT22;6146;48.128;11.476;2023-02-01T13:23:30;5.30;99.90
12166;DHT22;6146;48.128;11.476;2023-02-01T13:25:56;5.30;99.90
12166;DHT22;6146;48.128;11.476;2023-02-01T13:34:08;5.30;99.90
12166;DHT22;6146;48.128;11.476;2023-02-01T13:39:34;5.20;99.90
12166;DHT22;6146;48.128;11.476;2023-02-01T13:42:05;5.20;99.90
12166;DHT22;6146;48.128;11.476;2023-02-01T13:44:54;5.20;99.90
12166;DHT22;6146;48.128;11.476;2023-02-01T13:49:55;5.30;99.90
12166;DHT22;6146;48.128;11.476;2023-02-01T13:52:38;5.40;99.90
12166;DHT22;6146;48.128;11.476;2023-02-01T13:57:45;5.50;99.90
12166;DHT22;6146;48.128;11.476;2023-02-01T14:00:44;5.40;99.90
12166;DHT22;6146;48.128;11.476;2023-02-01T14:03:15;5.40;99.90
12166;DHT22;6146;48.128;11.476;2023-02-01T14:08:12;5.30;99.90
12166;DHT22;6146;48.128;11.476;2023-02-01T14:23:42;5.10;99.90
12166;DHT22;6146;48.128;11.476;2023-02-01T14:26:17;5.10;99.90
12166;DHT22;6146;48.128;11.476;2023-02-01T14:28:53;5.00;99.90
12166;DHT22;6146;48.128;11.476;2023-02-01T14:31:32;5.00;99.90
12166;DHT22;6146;48.128;11.476;2023-02-01T14:34:02;5.00;99.90
12166;DHT22;6146;48.128;11.476;2023-02-01T14:36:59;5.00;99.90
12166;DHT22;6146;48.128;11.476;2023-02-01T14:39:27;5.00;99.90
12166;DHT22;6146;48.128;11.476;2023-02-01T14:41:57;5.10;99.90
12166;DHT22;6146;48.128;11.476;2023-02-01T14:44:33;5.00;99.90
12166;DHT22;6146;48.128;11.476;2023-02-01T14:47:06;5.10;99.90
12166;DHT22;6146;48.128;11.476;2023-02-01T14:49:42;5.00;99.90
12166;DHT22;6146;48.128;11.476;2023-02-01T14:52:16;5.10;99.90
12166;DHT22;6146;48.128;11.476;2023-02-01T14:54:43;5.00;99.90
12166;DHT22;6146;48.128;11.476;2023-02-01T14:57:19;5.10;99.90
12166;DHT22;6146;48.128;11.476;2023-02-01T14:59:46;5.10;99.90
12166;DHT22;6146;48.128;11.476;2023-02-01T15:02:21;5.00;99.90
12166;DHT22;6146;48.128;11.476;2023-02-01T15:04:54;5.00;99.90
12166;DHT22;6146;48.128;11.476;2023-02-01T15:07:21;5.00;99.90
12166;DHT22;6146;48.128;11.476;2023-02-01T15:09:50;5.00;99.90
12166;DHT22;6146;48.128;11.476;2023-02-01T15:12:18;5.00;99.90
12166;DHT22;6146;48.128;11.476;2023-02-01T15:17:33;5.00;99.90
12166;DHT22;6146;48.128;11.476;2023-02-01T15:20:14;4.90;99.90
12166;DHT22;6146;48.128;11.476;2023-02-01T15:22:41;4.90;99.90
12166;DHT22;6146;48.128;11.476;2023-02-01T15:25:19;4.90;99.90
12166;DHT22;6146;48.128;11.476;2023-02-01T15:27:45;4.80;99.90
12166;DHT22;6146;48.128;11.476;2023-02-01T15:30:36;4.80;99.90
12166;DHT22;6146;48.128;11.476;2023-02-01T15:35:42;4.50;99.90
12166;DHT22;6146;48.128;11.476;2023-02-01T15:41:16;4.40;99.90
12166;DHT22;6146;48.128;11.476;2023-02-01T15:44:11;4.30;99.90
12166;DHT22;6146;48.128;11.476;2023-02-01T15:46:42;4.30;99.90
12166;DHT22;6146;48.128;11.476;2023-02-01T15:49:32;4.30;99.90
12166;DHT22;6146;48.128;11.476;2023-02-01T15:52:02;4.20;99.90
12166;DHT22;6146;48.128;11.476;2023-02-01T15:54:41;4.20;99.90
12166;DHT22;6146;48.128;11.476;2023-02-01T15:57:09;4.00;99.90
12166;DHT22;6146;48.128;11.476;2023-02-01T15:59:43;4.20;99.90
12166;DHT22;6146;48.128;11.476;2023-02-01T16:02:42;4.20;99.90
12166;DHT22;6146;48.128;11.476;2023-02-01T16:05:34;4.20;99.90
12166;DHT22;6146;48.128;11.476;2023-02-01T16:08:13;4.20;99.90
12166;DHT22;6146;48.128;11.476;2023-02-01T16:10:44;4.20;99.90
12166;DHT22;6146;48.128;11.476;2023-02-01T16:13:11;4.20;99.90
12166;DHT22;6146;48.128;11.476;2023-02-01T16:15:37;4.20;99.90
12166;DHT22;6146;48.128;11.476;2023-02-01T16:18:03;4.20;99.90
12166;DHT22;6146;48.128;11.476;2023-02-01T16:20:28;4.20;99.90
12166;DHT22;6146;48.128;11.476;2023-02-01T16:22:55;4.20;99.90
12166;DHT22;6146;48.128;11.476;2023-02-01T16:25:21;4.20;99.90
12166;DHT22;6146;48.128;11.476;2023-02-01T16:27:47;4.20;99.90
12166;DHT22;6146;48.128;11.476;2023-02-01T16:30:12;4.20;99.90
12166;DHT22;6146;48.128;11.476;2023-02-01T16:32:38;4.20;99.90
12166;DHT22;6146;48.128;11.476;2023-02-01T16:35:18;4.20;99.90
12166;DHT22;6146;48.128;11.476;2023-02-01T16:37:46;4.70;99.90
12166;DHT22;6146;48.128;11.476;2023-02-01T16:40:15;4.20;99.90
12166;DHT22;6146;48.128;11.476;2023-02-01T16:42:41;4.30;99.90
12166;DHT22;6146;48.128;11.476;2023-02-01T16:45:08;4.30;99.90
12166;DHT22;6146;48.128;11.476;2023-02-01T16:47:36;4.40;99.90
12166;DHT22;6146;48.128;11.476;2023-02-01T16:50:03;4.40;99.90
12166;DHT22;6146;48.128;11.476;2023-02-01T16:52:29;4.30;99.90
12166;DHT22;6146;48.128;11.476;2023-02-01T16:54:54;4.40;99.90
12166;DHT22;6146;48.128;11.476;2023-02-01T16:57:21;4.40;99.90
12166;DHT22;6146;48.128;11.476;2023-02-01T16:59:51;4.40;99.90
12166;DHT22;6146;48.128;11.476;2023-02-01T17:02:19;4.40;99.90
12166;DHT22;6146;48.128;11.476;2023-02-01T17:04:45;4.50;99.90
12166;DHT22;6146;48.128;11.476;2023-02-01T17:07:15;4.40;99.90
12166;DHT22;6146;48.128;11.476;2023-02-01T17:09:41;4.50;99.90
12166;DHT22;6146;48.128;11.476;2023-02-01T17:12:22;4.50;99.90
12166;DHT22;6146;48.128;11.476;2023-02-01T17:14:48;4.50;99.90
12166;DHT22;6146;48.128;11.476;2023-02-01T17:17:14;4.50;99.90
12166;DHT22;6146;48.128;11.476;2023-02-01T17:19:40;4.50;99.90
12166;DHT22;6146;48.128;11.476;2023-02-01T17:22:06;4.60;99.90
12166;DHT22;6146;48.128;11.476;2023-02-01T17:24:32;4.60;99.90
12166;DHT22;6146;48.128;11.476;2023-02-01T17:26:57;4.60;99.90
12166;DHT22;6146;48.128;11.476;2023-02-01T17:29:23;4.60;99.90
12166;DHT22;6146;48.128;11.476;2023-02-01T17:31:51;4.60;99.90
12166;DHT22;6146;48.128;11.476;2023-02-01T17:34:17;4.60;99.90
12166;DHT22;6146;48.128;11.476;2023-02-01T17:36:46;4.60;99.90
12166;DHT22;6146;48.128;11.476;2023-02-01T17:39:12;4.60;99.90
12166;DHT22;6146;48.128;11.476;2023-02-01T17:41:59;4.60;99.90
12166;DHT22;6146;48.128;11.476;2023-02-01T17:44:25;4.70;99.90
12166;DHT22;6146;48.128;11.476;2023-02-01T17:46:51;4.60;99.90
12166;DHT22;6146;48.128;11.476;2023-02-01T17:49:17;4.70;99.90
12166;DHT22;6146;48.128;11.476;2023-02-01T17:51:42;4.70;99.90
12166;DHT22;6146;48.128;11.476;2023-02-01T17:54:17;4.70;99.90
12166;DHT22;6146;48.128;11.476;2023-02-01T17:56:44;4.70;99.90
12166;DHT22;6146;48.128;11.476;2023-02-01T17:59:09;4.80;99.90
12166;DHT22;6146;48.128;11.476;2023-02-01T18:01:36;4.80;99.90
12166;DHT22;6146;48.128;11.476;2023-02-01T18:04:02;4.80;99.90
12166;DHT22;6146;48.128;11.476;2023-02-01T18:06:32;4.80;99.90
12166;DHT22;6146;48.128;11.476;2023-02-01T18:08:58;4.80;99.90
12166;DHT22;6146;48.128;11.476;2023-02-01T18:11:24;4.80;99.90
12166;DHT22;6146;48.128;11.476;2023-02-01T18:13:51;4.80;99.90